Time;durP1;ratioP1;P1;durP2;ratioP2;P2;SDS_P1;SDS_P2;PMS_P1;PMS_P2;Temp;Humidity;BMP_temperature;BMP_pressure;BME280_temperature;BME280_humidity;BME280_pressure;Samples;Min_cycle;Max_cycle;Signal;HPM_P1;HPM_P2
2024/01/17 00:01:12;;;;;;;9.20;4.10;;;;;;;;;;5073943;28;20512;-78
2024/01/17 00:03:37;;;;;;;8.93;4.13;;;;;;;;;;5074531;28;20067;-78
2024/01/17 00:06:02;;;;;;;8.07;4.73;;;;;;;;;;5069152;28;20033;-78
2024/01/17 00:08:27;;;;;;;8.93;3.70;;;;;;;;;;5072020;28;20020;-78
2024/01/17 00:10:53;;;;;;;9.50;5.23;;;;;;;;;;5083615;28;20032;-77
2024/01/17 00:13:18;;;;;;;12.07;6.33;;;;;;;;;;5069799;28;20029;-77
2024/01/17 00:15:43;;;;;;;8.17;4.50;;;;;;;;;;5068953;28;20535;-78
2024/01/17 00:18:08;;;;;;;10.37;5.50;;;;;;;;;;5070230;28;20497;-77
2024/01/17 00:20:33;;;;;;;12.40;6.63;;;;;;;;;;5072799;28;20029;-78
2024/01/17 00:22:58;;;;;;;9.53;5.53;;;;;;;;;;5070439;28;20044;-78
2024/01/17 00:25:24;;;;;;;9.70;5.40;;;;;;;;;;5070498;28;20025;-78
2024/01/17 00:27:49;;;;;;;11.47;5.90;;;;;;;;;;5070330;28;20028;-78
2024/01/17 00:30:14;;;;;;;9.80;5.63;;;;;;;;;;5073130;28;20073;-78
2024/01/17 00:32:39;;;;;;;13.23;5.27;;;;;;;;;;5073047;28;20024;-78
2024/01/17 00:35:05;;;;;;;11.63;4.40;;;;;;;;;;5072581;28;20555;-78
2024/01/17 00:37:30;;;;;;;9.87;4.87;;;;;;;;;;5073409;28;20114;-78
2024/01/17 00:39:55;;;;;;;7.03;3.93;;;;;;;;;;5083890;28;20068;-78
2024/01/17 00:42:20;;;;;;;6.47;3.50;;;;;;;;;;5077606;28;20044;-78
2024/01/17 00:44:45;;;;;;;8.27;4.27;;;;;;;;;;5073663;28;20028;-78
2024/01/17 00:47:12;;;;;;;9.23;4.67;;;;;;;;;;5073488;28;20041;-78
2024/01/17 00:49:40;;;;;;;8.70;4.63;;;;;;;;;;5073069;28;20480;-78
2024/01/17 00:52:05;;;;;;;8.43;4.07;;;;;;;;;;5076722;28;20032;-78
2024/01/17 00:54:31;;;;;;;7.57;3.90;;;;;;;;;;5072177;28;20078;-78
2024/01/17 00:56:58;;;;;;;11.13;4.67;;;;;;;;;;5073250;28;20555;-78
2024/01/17 00:59:23;;;;;;;7.93;3.87;;;;;;;;;;5071490;28;20035;-78
2024/01/17 01:01:48;;;;;;;13.37;4.90;;;;;;;;;;5079633;28;20424;-77
2024/01/17 01:04:13;;;;;;;8.53;4.77;;;;;;;;;;5072801;28;20032;-78
2024/01/17 01:06:38;;;;;;;10.53;5.50;;;;;;;;;;5074252;28;21820;-78
2024/01/17 01:09:04;;;;;;;11.00;4.32;;;;;;;;;;5074614;28;20036;-78
2024/01/17 01:11:29;;;;;;;10.17;4.53;;;;;;;;;;5076257;28;20034;-78
2024/01/17 01:13:55;;;;;;;9.30;4.67;;;;;;;;;;5072715;28;20043;-77
2024/01/17 01:16:20;;;;;;;10.43;5.27;;;;;;;;;;5080092;28;20031;-77
2024/01/17 01:18:45;;;;;;;11.60;5.67;;;;;;;;;;5079054;28;20055;-77
2024/01/17 01:21:10;;;;;;;9.67;4.70;;;;;;;;;;5075918;28;20050;-77
2024/01/17 01:23:35;;;;;;;11.30;4.90;;;;;;;;;;5076108;28;20037;-77
2024/01/17 01:26:00;;;;;;;9.17;4.40;;;;;;;;;;5074450;28;20055;-77
2024/01/17 01:28:26;;;;;;;11.30;5.57;;;;;;;;;;5071935;28;20070;-77
2024/01/17 01:30:51;;;;;;;10.00;4.63;;;;;;;;;;5075076;28;20037;-77
2024/01/17 01:33:16;;;;;;;13.23;6.13;;;;;;;;;;5074442;28;20032;-77
2024/01/17 01:35:41;;;;;;;9.90;4.93;;;;;;;;;;5072093;28;20028;-77
2024/01/17 01:38:06;;;;;;;9.40;4.40;;;;;;;;;;5072285;28;20055;-77
2024/01/17 01:40:32;;;;;;;9.80;4.20;;;;;;;;;;5075648;28;20480;-77
2024/01/17 01:43:00;;;;;;;11.07;5.17;;;;;;;;;;5071973;28;20032;-77
2024/01/17 01:45:25;;;;;;;10.80;5.20;;;;;;;;;;5071966;28;20033;-77
2024/01/17 01:47:50;;;;;;;11.70;4.87;;;;;;;;;;5079787;28;20077;-77
2024/01/17 01:50:16;;;;;;;10.57;5.67;;;;;;;;;;5073433;28;20492;-77
2024/01/17 01:52:42;;;;;;;9.00;4.27;;;;;;;;;;5078390;28;20040;-77
2024/01/17 01:55:09;;;;;;;7.37;3.93;;;;;;;;;;5075904;28;20048;-78
2024/01/17 01:57:36;;;;;;;10.33;4.53;;;;;;;;;;5071896;28;20039;-78
2024/01/17 02:00:04;;;;;;;9.50;4.50;;;;;;;;;;5071808;28;20024;-77
2024/01/17 02:02:38;;;;;;;8.97;4.17;;;;;;;;;;5074175;28;20539;-77
2024/01/17 02:05:03;;;;;;;9.80;5.00;;;;;;;;;;5071627;28;20039;-77
2024/01/17 02:07:29;;;;;;;11.33;5.07;;;;;;;;;;5071670;28;20094;-77
2024/01/17 02:09:54;;;;;;;11.63;5.17;;;;;;;;;;5071638;28;20430;-77
2024/01/17 02:12:20;;;;;;;10.20;5.30;;;;;;;;;;5073056;28;20119;-78
2024/01/17 02:14:46;;;;;;;10.27;4.97;;;;;;;;;;5073449;28;20040;-77
2024/01/17 02:17:11;;;;;;;12.40;5.57;;;;;;;;;;5071633;28;20083;-78
2024/01/17 02:19:38;;;;;;;11.50;5.57;;;;;;;;;;5069557;28;20024;-78
2024/01/17 02:22:03;;;;;;;9.80;4.83;;;;;;;;;;5076738;28;20086;-78
2024/01/17 02:24:28;;;;;;;12.40;5.20;;;;;;;;;;5071104;28;20435;-78
2024/01/17 02:26:54;;;;;;;12.33;4.83;;;;;;;;;;5071572;28;20052;-78
2024/01/17 02:29:20;;;;;;;10.73;4.97;;;;;;;;;;5070245;28;20040;-78
2024/01/17 02:31:45;;;;;;;10.00;4.73;;;;;;;;;;5073645;28;20147;-78
2024/01/17 02:34:10;;;;;;;9.20;4.60;;;;;;;;;;5074440;28;20130;-78
2024/01/17 02:36:35;;;;;;;10.83;4.80;;;;;;;;;;5074480;28;20047;-78
2024/01/17 02:39:01;;;;;;;9.97;4.57;;;;;;;;;;5069864;28;20033;-78
2024/01/17 02:41:26;;;;;;;9.87;4.17;;;;;;;;;;5074455;28;20504;-78
2024/01/17 02:43:51;;;;;;;9.30;4.80;;;;;;;;;;5077805;28;20024;-78
2024/01/17 02:46:16;;;;;;;8.63;4.80;;;;;;;;;;5081345;28;20043;-78
2024/01/17 02:48:42;;;;;;;11.83;5.47;;;;;;;;;;5070656;28;20037;-77
2024/01/17 02:51:07;;;;;;;9.33;3.87;;;;;;;;;;5078457;28;20032;-78
2024/01/17 02:53:33;;;;;;;8.03;3.97;;;;;;;;;;5069573;28;20024;-77
2024/01/17 02:55:58;;;;;;;9.90;4.67;;;;;;;;;;5071598;28;20071;-77
2024/01/17 02:58:23;;;;;;;9.33;4.43;;;;;;;;;;5070184;28;20036;-77
2024/01/17 03:00:48;;;;;;;10.23;5.03;;;;;;;;;;5075176;28;20028;-78
2024/01/17 03:03:13;;;;;;;12.25;4.45;;;;;;;;;;5071666;28;20111;-78
2024/01/17 03:05:38;;;;;;;8.87;4.30;;;;;;;;;;5069815;28;20066;-78
2024/01/17 03:08:05;;;;;;;11.20;4.50;;;;;;;;;;5071032;28;20020;-78
2024/01/17 03:10:30;;;;;;;9.67;4.47;;;;;;;;;;5071066;28;20082;-78
2024/01/17 03:12:56;;;;;;;8.83;4.13;;;;;;;;;;5071226;28;20037;-77
2024/01/17 03:15:21;;;;;;;9.63;4.37;;;;;;;;;;5071072;28;20032;-77
2024/01/17 03:17:47;;;;;;;8.50;3.80;;;;;;;;;;5071909;28;20060;-78
2024/01/17 03:20:12;;;;;;;7.27;3.97;;;;;;;;;;5070639;28;20406;-77
2024/01/17 03:22:38;;;;;;;10.47;4.33;;;;;;;;;;5080600;28;20032;-78
2024/01/17 03:25:04;;;;;;;8.40;3.63;;;;;;;;;;5070458;28;20036;-78
2024/01/17 03:27:29;;;;;;;8.40;3.87;;;;;;;;;;5070617;28;20415;-78
2024/01/17 03:29:55;;;;;;;6.90;3.87;;;;;;;;;;5073018;28;20032;-78
2024/01/17 03:32:20;;;;;;;8.70;3.60;;;;;;;;;;5071925;28;20029;-78
2024/01/17 03:34:45;;;;;;;7.33;3.40;;;;;;;;;;5070621;28;20974;-78
2024/01/17 03:37:10;;;;;;;10.93;4.17;;;;;;;;;;5070737;28;20044;-78
2024/01/17 03:39:36;;;;;;;7.67;3.90;;;;;;;;;;5072875;28;20454;-78
2024/01/17 03:42:01;;;;;;;7.80;4.03;;;;;;;;;;5071498;28;20350;-78
2024/01/17 03:44:26;;;;;;;7.03;3.40;;;;;;;;;;5069772;28;20033;-78
2024/01/17 03:46:51;;;;;;;8.70;4.13;;;;;;;;;;5071937;28;20032;-78
2024/01/17 03:49:17;;;;;;;11.17;3.90;;;;;;;;;;5070490;28;20408;-78
2024/01/17 03:51:42;;;;;;;9.10;3.80;;;;;;;;;;5078350;28;20035;-78
2024/01/17 03:54:08;;;;;;;9.00;3.90;;;;;;;;;;5068478;28;20071;-78
2024/01/17 03:56:33;;;;;;;8.50;3.77;;;;;;;;;;5069938;28;20128;-78
2024/01/17 03:58:58;;;;;;;8.53;4.03;;;;;;;;;;5069449;28;20060;-78
2024/01/17 04:01:23;;;;;;;6.50;3.70;;;;;;;;;;5073877;28;20100;-78
2024/01/17 04:03:49;;;;;;;11.97;5.10;;;;;;;;;;5070173;28;20039;-77
2024/01/17 04:06:14;;;;;;;8.67;4.27;;;;;;;;;;5072612;28;20447;-78
2024/01/17 04:08:39;;;;;;;11.70;4.57;;;;;;;;;;5076857;28;20107;-78
2024/01/17 04:11:04;;;;;;;11.33;4.73;;;;;;;;;;5075413;28;20024;-78
2024/01/17 04:13:29;;;;;;;8.47;3.90;;;;;;;;;;5074841;28;20105;-78
2024/01/17 04:15:55;;;;;;;7.80;4.20;;;;;;;;;;5076008;28;20025;-77
2024/01/17 04:18:20;;;;;;;8.60;4.30;;;;;;;;;;5072055;28;20066;-78
2024/01/17 04:20:45;;;;;;;9.63;4.40;;;;;;;;;;5074645;28;20032;-78
2024/01/17 04:23:10;;;;;;;9.07;3.90;;;;;;;;;;5073452;28;20043;-78
2024/01/17 04:25:35;;;;;;;10.57;5.63;;;;;;;;;;5073689;28;20093;-78
2024/01/17 04:28:04;;;;;;;10.83;4.47;;;;;;;;;;5073564;28;20040;-78
2024/01/17 04:30:29;;;;;;;8.80;4.07;;;;;;;;;;5073625;28;20033;-78
2024/01/17 04:32:55;;;;;;;7.73;3.23;;;;;;;;;;5076399;28;20038;-78
2024/01/17 04:35:20;;;;;;;9.13;3.97;;;;;;;;;;5079870;28;20028;-78
2024/01/17 04:37:45;;;;;;;8.70;3.63;;;;;;;;;;5082021;28;20031;-78
2024/01/17 04:40:12;;;;;;;7.30;3.60;;;;;;;;;;5076830;28;20380;-78
2024/01/17 04:42:37;;;;;;;7.00;3.63;;;;;;;;;;5076833;28;20094;-78
2024/01/17 04:45:03;;;;;;;8.07;3.57;;;;;;;;;;5075422;28;20484;-78
2024/01/17 04:47:28;;;;;;;9.60;4.13;;;;;;;;;;5076074;28;20090;-78
2024/01/17 04:49:53;;;;;;;9.63;4.60;;;;;;;;;;5080675;28;20528;-78
2024/01/17 04:52:18;;;;;;;8.87;4.03;;;;;;;;;;5073031;28;20044;-78
2024/01/17 04:54:44;;;;;;;10.50;3.50;;;;;;;;;;5079416;28;20493;-78
2024/01/17 04:57:09;;;;;;;9.47;3.93;;;;;;;;;;5074037;28;20032;-77
2024/01/17 04:59:34;;;;;;;10.67;5.10;;;;;;;;;;5073724;28;20021;-77
2024/01/17 05:02:00;;;;;;;8.83;4.27;;;;;;;;;;5080746;28;20032;-77
2024/01/17 05:04:25;;;;;;;9.97;4.17;;;;;;;;;;5071712;28;20051;-77
2024/01/17 05:06:51;;;;;;;7.17;3.40;;;;;;;;;;5075645;28;20038;-78
2024/01/17 05:09:18;;;;;;;8.97;4.63;;;;;;;;;;5075635;28;20036;-78
2024/01/17 05:11:43;;;;;;;10.63;4.37;;;;;;;;;;5078480;28;20409;-78
2024/01/17 05:14:08;;;;;;;7.60;3.97;;;;;;;;;;5073474;28;20040;-78
2024/01/17 05:16:34;;;;;;;7.60;4.07;;;;;;;;;;5075630;28;20032;-78
2024/01/17 05:18:59;;;;;;;9.13;4.47;;;;;;;;;;5063888;28;20519;-78
2024/01/17 05:21:24;;;;;;;10.13;5.37;;;;;;;;;;5086341;28;20051;-78
2024/01/17 05:23:49;;;;;;;7.33;3.67;;;;;;;;;;5072266;28;20028;-77
2024/01/17 05:26:16;;;;;;;10.10;4.57;;;;;;;;;;5073886;28;20044;-78
2024/01/17 05:28:41;;;;;;;19.97;8.97;;;;;;;;;;5076599;28;20426;-78
2024/01/17 05:31:06;;;;;;;11.53;5.90;;;;;;;;;;5081921;28;20081;-77
2024/01/17 05:33:31;;;;;;;13.03;5.97;;;;;;;;;;5076228;28;20036;-77
2024/01/17 05:35:56;;;;;;;10.53;5.67;;;;;;;;;;5077873;28;20036;-77
2024/01/17 05:38:22;;;;;;;11.03;6.17;;;;;;;;;;5075723;28;20063;-77
2024/01/17 05:40:47;;;;;;;11.57;5.03;;;;;;;;;;5077811;28;20119;-77
2024/01/17 05:43:13;;;;;;;10.60;5.10;;;;;;;;;;5084936;28;20431;-77
2024/01/17 05:45:38;;;;;;;8.63;4.43;;;;;;;;;;5081548;28;20070;-78
2024/01/17 05:48:03;;;;;;;9.10;4.83;;;;;;;;;;5079125;28;20441;-77
2024/01/17 05:50:29;;;;;;;9.00;4.47;;;;;;;;;;5082079;28;20743;-78
2024/01/17 05:52:54;;;;;;;9.67;4.70;;;;;;;;;;5082427;28;20036;-77
2024/01/17 05:55:22;;;;;;;10.73;5.67;;;;;;;;;;5077787;28;20073;-78
2024/01/17 05:57:48;;;;;;;9.90;4.80;;;;;;;;;;5083907;28;20068;-78
2024/01/17 06:00:13;;;;;;;11.60;5.53;;;;;;;;;;5080169;28;20028;-78
2024/01/17 06:02:39;;;;;;;11.17;5.60;;;;;;;;;;5082203;28;20035;-78
2024/01/17 06:05:04;;;;;;;14.83;6.57;;;;;;;;;;5077490;28;20029;-78
2024/01/17 06:07:30;;;;;;;14.03;6.43;;;;;;;;;;5072656;28;20116;-78
2024/01/17 06:09:55;;;;;;;10.13;5.03;;;;;;;;;;5071528;28;20077;-78
2024/01/17 06:12:20;;;;;;;10.67;5.23;;;;;;;;;;5078864;28;20036;-78
2024/01/17 06:14:45;;;;;;;11.40;5.17;;;;;;;;;;5071700;28;20090;-78
2024/01/17 06:17:11;;;;;;;10.73;4.77;;;;;;;;;;5071915;28;20616;-78
2024/01/17 06:19:36;;;;;;;11.47;5.83;;;;;;;;;;5075004;28;20503;-78
2024/01/17 06:22:01;;;;;;;14.03;6.37;;;;;;;;;;5079783;28;20032;-78
2024/01/17 06:24:26;;;;;;;14.80;6.70;;;;;;;;;;5076286;28;20070;-77
2024/01/17 06:26:52;;;;;;;13.43;7.03;;;;;;;;;;5082178;28;20047;-78
2024/01/17 06:29:17;;;;;;;11.37;6.53;;;;;;;;;;5074071;28;20033;-78
2024/01/17 06:31:42;;;;;;;14.47;7.13;;;;;;;;;;5074309;28;20558;-78
2024/01/17 06:34:07;;;;;;;12.60;6.40;;;;;;;;;;5071843;28;20040;-78
2024/01/17 06:36:32;;;;;;;14.43;7.23;;;;;;;;;;5069944;28;20055;-78
2024/01/17 06:38:58;;;;;;;12.17;6.77;;;;;;;;;;5070970;28;20032;-78
2024/01/17 06:41:23;;;;;;;14.37;6.50;;;;;;;;;;5077948;28;20043;-78
2024/01/17 06:43:49;;;;;;;13.93;6.63;;;;;;;;;;5076381;28;20372;-78
2024/01/17 06:46:14;;;;;;;14.23;6.10;;;;;;;;;;5073609;28;20047;-78
2024/01/17 06:48:42;;;;;;;17.60;7.70;;;;;;;;;;5082830;28;20508;-78
2024/01/17 06:51:07;;;;;;;23.97;9.60;;;;;;;;;;5079556;28;20059;-78
2024/01/17 06:53:34;;;;;;;14.00;7.10;;;;;;;;;;5073957;28;20052;-78
2024/01/17 06:55:59;;;;;;;17.70;7.13;;;;;;;;;;5071370;28;20040;-78
2024/01/17 06:58:24;;;;;;;13.60;6.57;;;;;;;;;;5077453;28;20039;-78
2024/01/17 07:00:49;;;;;;;13.17;6.57;;;;;;;;;;5071393;28;20032;-78
2024/01/17 07:03:14;;;;;;;14.73;7.37;;;;;;;;;;5077342;28;20119;-78
2024/01/17 07:05:40;;;;;;;14.90;6.07;;;;;;;;;;5072090;28;20037;-78
2024/01/17 07:08:05;;;;;;;12.83;6.80;;;;;;;;;;5071406;28;20029;-78
2024/01/17 07:10:31;;;;;;;13.50;5.93;;;;;;;;;;5073842;28;20161;-78
2024/01/17 07:12:56;;;;;;;13.33;6.70;;;;;;;;;;5078255;28;20035;-78
2024/01/17 07:15:21;;;;;;;14.80;6.10;;;;;;;;;;5071002;28;20107;-78
2024/01/17 07:17:47;;;;;;;17.13;6.67;;;;;;;;;;5071001;28;20047;-78
2024/01/17 07:20:12;;;;;;;13.60;6.40;;;;;;;;;;5069697;28;20492;-77
2024/01/17 07:22:41;;;;;;;11.43;6.00;;;;;;;;;;5075219;28;20096;-77
2024/01/17 07:25:06;;;;;;;12.80;6.17;;;;;;;;;;5070508;28;20519;-78
2024/01/17 07:27:31;;;;;;;17.67;7.90;;;;;;;;;;5077197;28;20044;-78
2024/01/17 07:29:57;;;;;;;16.83;7.03;;;;;;;;;;5071535;28;20040;-78
2024/01/17 07:32:22;;;;;;;16.57;8.57;;;;;;;;;;5080651;28;20042;-78
2024/01/17 07:34:47;;;;;;;19.27;7.60;;;;;;;;;;5071867;28;20094;-78
2024/01/17 07:37:13;;;;;;;17.70;7.30;;;;;;;;;;5071634;28;20035;-78
2024/01/17 07:39:38;;;;;;;15.53;7.00;;;;;;;;;;5072635;28;20561;-78
2024/01/17 07:42:03;;;;;;;15.10;6.73;;;;;;;;;;5080334;28;20028;-78
2024/01/17 07:44:30;;;;;;;11.97;6.70;;;;;;;;;;5076090;28;20111;-78
2024/01/17 07:46:55;;;;;;;17.73;7.50;;;;;;;;;;5077826;28;20040;-78
2024/01/17 07:49:20;;;;;;;16.73;7.43;;;;;;;;;;5077427;28;20032;-78
2024/01/17 07:51:45;;;;;;;18.87;7.47;;;;;;;;;;5083862;28;20032;-78
2024/01/17 07:54:11;;;;;;;15.60;7.73;;;;;;;;;;5076779;28;20032;-78
2024/01/17 07:56:36;;;;;;;14.30;7.23;;;;;;;;;;5079300;28;20063;-78
2024/01/17 07:59:01;;;;;;;12.67;6.37;;;;;;;;;;5074160;28;20039;-78
2024/01/17 08:01:26;;;;;;;14.63;6.70;;;;;;;;;;5080526;28;20027;-78
2024/01/17 08:03:51;;;;;;;14.07;7.07;;;;;;;;;;5074215;28;20129;-78
2024/01/17 08:06:17;;;;;;;15.63;7.33;;;;;;;;;;5072987;28;20029;-77
2024/01/17 08:08:42;;;;;;;13.60;6.43;;;;;;;;;;5077781;28;20050;-78
2024/01/17 08:11:07;;;;;;;12.83;6.43;;;;;;;;;;5079935;28;20059;-78
2024/01/17 08:13:34;;;;;;;14.47;8.00;;;;;;;;;;5076709;28;20064;-78
2024/01/17 08:15:59;;;;;;;17.43;7.53;;;;;;;;;;5074343;28;20028;-78
2024/01/17 08:18:24;;;;;;;16.20;7.23;;;;;;;;;;5072359;28;20118;-78
2024/01/17 08:20:49;;;;;;;16.03;7.40;;;;;;;;;;5072703;28;20017;-78
2024/01/17 08:23:14;;;;;;;17.30;6.97;;;;;;;;;;5079063;28;20111;-78
2024/01/17 08:25:39;;;;;;;12.33;6.10;;;;;;;;;;5073769;28;20082;-78
2024/01/17 08:28:05;;;;;;;14.93;7.70;;;;;;;;;;5074041;28;20406;-78
2024/01/17 08:30:30;;;;;;;18.00;8.47;;;;;;;;;;5073119;28;20036;-78
2024/01/17 08:32:55;;;;;;;19.10;9.00;;;;;;;;;;5078208;28;20111;-78
2024/01/17 08:35:20;;;;;;;17.00;8.50;;;;;;;;;;5073890;28;20067;-78
2024/01/17 08:37:46;;;;;;;18.23;8.07;;;;;;;;;;5075485;28;20454;-78
2024/01/17 08:40:11;;;;;;;16.20;9.40;;;;;;;;;;5073400;28;20025;-77
2024/01/17 08:42:37;;;;;;;20.13;8.53;;;;;;;;;;5078880;28;20533;-78
2024/01/17 08:45:02;;;;;;;14.20;7.83;;;;;;;;;;5073704;28;20043;-78
2024/01/17 08:47:27;;;;;;;16.60;7.67;;;;;;;;;;5074100;28;20507;-78
2024/01/17 08:49:55;;;;;;;23.03;11.93;;;;;;;;;;5079514;28;20493;-78
2024/01/17 08:52:20;;;;;;;29.23;12.23;;;;;;;;;;5079047;28;20041;-78
2024/01/17 08:54:46;;;;;;;21.87;11.23;;;;;;;;;;5072612;28;20119;-78
2024/01/17 08:57:11;;;;;;;18.50;9.13;;;;;;;;;;5072468;28;20099;-78
2024/01/17 08:59:36;;;;;;;19.00;8.50;;;;;;;;;;5078633;28;20484;-78
2024/01/17 09:02:02;;;;;;;14.43;6.80;;;;;;;;;;5074834;28;20094;-78
2024/01/17 09:04:28;;;;;;;16.10;7.37;;;;;;;;;;5071587;28;20033;-78
2024/01/17 09:06:54;;;;;;;13.63;7.03;;;;;;;;;;5073485;28;20040;-78
2024/01/17 09:09:20;;;;;;;13.40;6.73;;;;;;;;;;5073121;28;20117;-78
2024/01/17 09:11:45;;;;;;;13.43;5.97;;;;;;;;;;5077121;28;20059;-78
2024/01/17 09:14:11;;;;;;;10.33;5.07;;;;;;;;;;5079118;28;20032;-78
2024/01/17 09:16:36;;;;;;;10.43;5.20;;;;;;;;;;5079849;28;20036;-78
2024/01/17 09:19:01;;;;;;;12.10;5.60;;;;;;;;;;5077235;28;20036;-78
2024/01/17 09:21:26;;;;;;;11.43;5.57;;;;;;;;;;5074720;28;20099;-78
2024/01/17 09:23:51;;;;;;;9.70;4.87;;;;;;;;;;5075649;28;20085;-78
2024/01/17 09:26:16;;;;;;;11.70;5.30;;;;;;;;;;5080337;28;20040;-78
2024/01/17 09:28:42;;;;;;;11.20;5.10;;;;;;;;;;5080763;28;20036;-78
2024/01/17 09:31:08;;;;;;;11.32;4.88;;;;;;;;;;5077630;28;20103;-78
2024/01/17 09:33:35;;;;;;;11.57;5.65;;;;;;;;;;5076648;28;20495;-78
2024/01/17 09:36:00;;;;;;;9.43;5.10;;;;;;;;;;5080480;28;20036;-78
2024/01/17 09:38:25;;;;;;;12.90;4.82;;;;;;;;;;5071270;28;20558;-78
2024/01/17 09:40:50;;;;;;;11.13;5.75;;;;;;;;;;5072748;28;20028;-78
2024/01/17 09:43:16;;;;;;;10.65;5.25;;;;;;;;;;5078227;28;20043;-78
2024/01/17 09:45:42;;;;;;;11.45;5.20;;;;;;;;;;5079311;28;21760;-78
2024/01/17 09:48:08;;;;;;;11.10;5.22;;;;;;;;;;5072622;28;20036;-78
2024/01/17 09:50:33;;;;;;;9.85;5.10;;;;;;;;;;5079466;28;20124;-78
2024/01/17 09:53:00;;;;;;;9.43;4.90;;;;;;;;;;5077188;28;20108;-78
2024/01/17 09:55:25;;;;;;;9.25;5.18;;;;;;;;;;5071616;28;20032;-78
2024/01/17 09:57:53;;;;;;;11.98;5.18;;;;;;;;;;5072515;28;20441;-78
2024/01/17 10:00:18;;;;;;;11.98;4.90;;;;;;;;;;5072393;28;20033;-78
2024/01/17 10:02:44;;;;;;;12.40;5.40;;;;;;;;;;5072892;28;20071;-78
2024/01/17 10:05:11;;;;;;;10.57;5.00;;;;;;;;;;5070819;28;20033;-78
2024/01/17 10:07:36;;;;;;;9.63;4.82;;;;;;;;;;5071551;28;20446;-78
2024/01/17 10:10:02;;;;;;;8.32;4.07;;;;;;;;;;5072187;28;20032;-78
2024/01/17 10:12:27;;;;;;;11.13;5.15;;;;;;;;;;5076673;28;20029;-78
2024/01/17 10:14:52;;;;;;;17.48;5.15;;;;;;;;;;5072076;28;20040;-78
2024/01/17 10:17:18;;;;;;;10.80;4.68;;;;;;;;;;5072457;28;20396;-78
2024/01/17 10:19:43;;;;;;;10.60;5.13;;;;;;;;;;5071701;28;20028;-78
2024/01/17 10:22:10;;;;;;;9.48;4.78;;;;;;;;;;5076507;28;20044;-78
2024/01/17 10:24:36;;;;;;;7.88;4.70;;;;;;;;;;5071830;28;20396;-78
2024/01/17 10:27:02;;;;;;;10.85;4.97;;;;;;;;;;5077714;28;20028;-78
2024/01/17 10:29:28;;;;;;;9.88;4.85;;;;;;;;;;5068971;28;20099;-78
2024/01/17 10:31:57;;;;;;;11.18;5.20;;;;;;;;;;5073912;28;20484;-78
2024/01/17 10:34:22;;;;;;;13.05;5.30;;;;;;;;;;5071615;28;20024;-78
2024/01/17 10:36:48;;;;;;;8.88;5.13;;;;;;;;;;5071483;28;20043;-78
2024/01/17 10:39:18;;;;;;;13.18;5.85;;;;;;;;;;5075281;28;20450;-78
2024/01/17 10:41:50;;;;;;;9.27;4.70;;;;;;;;;;5075675;28;20069;-78
2024/01/17 10:44:19;;;;;;;10.07;4.63;;;;;;;;;;5071768;28;20107;-78
2024/01/17 10:46:47;;;;;;;11.88;5.95;;;;;;;;;;5071339;28;20036;-78
2024/01/17 10:49:12;;;;;;;9.27;5.03;;;;;;;;;;5071282;28;20179;-78
2024/01/17 10:51:37;;;;;;;7.18;4.50;;;;;;;;;;5082312;28;20099;-78
2024/01/17 10:54:04;;;;;;;11.60;6.05;;;;;;;;;;5071116;28;20032;-78
2024/01/17 10:56:29;;;;;;;15.13;8.63;;;;;;;;;;5073410;28;20105;-78
2024/01/17 10:58:55;;;;;;;13.63;6.03;;;;;;;;;;5076227;28;20357;-78
2024/01/17 11:01:37;;;;;;;8.50;5.00;;;;;;;;;;5077064;28;20036;-78
2024/01/17 11:04:07;;;;;;;11.40;4.77;;;;;;;;;;5081911;28;20027;-79
2024/01/17 11:06:33;;;;;;;11.13;5.22;;;;;;;;;;5071242;28;20316;-78
2024/01/17 11:08:58;;;;;;;7.13;4.63;;;;;;;;;;5075021;28;20024;-79
2024/01/17 11:11:24;;;;;;;9.80;4.60;;;;;;;;;;5076472;28;20378;-79
2024/01/17 11:13:49;;;;;;;11.13;4.50;;;;;;;;;;5072414;28;20190;-79
2024/01/17 11:16:16;;;;;;;10.82;5.40;;;;;;;;;;5075962;28;20020;-78
2024/01/17 11:18:42;;;;;;;8.07;4.10;;;;;;;;;;5082725;28;20024;-79
2024/01/17 11:21:07;;;;;;;8.70;4.68;;;;;;;;;;5071268;28;20032;-79
2024/01/17 11:23:52;;;;;;;9.88;5.25;;;;;;;;;;5073653;28;20093;-79
2024/01/17 11:26:21;;;;;;;9.95;4.88;;;;;;;;;;5073686;28;20546;-79
2024/01/17 11:29:14;;;;;;;11.77;5.20;;;;;;;;;;5073205;28;20052;-79
2024/01/17 11:31:50;;;;;;;11.98;5.45;;;;;;;;;;5075495;28;20040;-79
2024/01/17 11:34:16;;;;;;;9.45;5.00;;;;;;;;;;5072890;28;20123;-78
2024/01/17 11:36:42;;;;;;;9.55;4.53;;;;;;;;;;5076813;28;20469;-78
2024/01/17 11:39:14;;;;;;;10.27;4.80;;;;;;;;;;5082365;28;20024;-78
2024/01/17 11:41:40;;;;;;;13.10;6.47;;;;;;;;;;5077785;28;20115;-78
2024/01/17 11:44:06;;;;;;;10.75;5.28;;;;;;;;;;5076913;28;20033;-79
2024/01/17 11:46:31;;;;;;;9.63;5.00;;;;;;;;;;5073384;28;20020;-78
2024/01/17 11:48:57;;;;;;;8.35;4.45;;;;;;;;;;5076721;28;20031;-79
2024/01/17 11:51:25;;;;;;;13.18;5.47;;;;;;;;;;5075294;28;20023;-78
2024/01/17 11:53:50;;;;;;;11.35;5.43;;;;;;;;;;5071510;28;20538;-79
2024/01/17 11:56:20;;;;;;;12.00;5.47;;;;;;;;;;5076686;28;20044;-78
2024/01/17 11:59:12;;;;;;;9.50;5.03;;;;;;;;;;5072579;28;20396;-79
2024/01/17 12:01:38;;;;;;;12.55;5.05;;;;;;;;;;5075705;28;20032;-78
2024/01/17 12:04:21;;;;;;;10.38;5.55;;;;;;;;;;5074978;28;20038;-79
2024/01/17 12:06:51;;;;;;;10.63;6.15;;;;;;;;;;5066652;28;20111;-78
2024/01/17 12:09:19;;;;;;;9.75;5.57;;;;;;;;;;5071240;28;20743;-79
2024/01/17 12:11:45;;;;;;;11.45;5.82;;;;;;;;;;5079453;28;20024;-79
2024/01/17 12:14:10;;;;;;;9.65;5.30;;;;;;;;;;5078728;28;20024;-79
2024/01/17 12:16:36;;;;;;;9.50;5.32;;;;;;;;;;5076123;28;20040;-79
2024/01/17 12:19:01;;;;;;;10.13;5.38;;;;;;;;;;5070541;28;20039;-79
2024/01/17 12:21:27;;;;;;;8.80;4.93;;;;;;;;;;5072795;28;20086;-79
2024/01/17 12:23:52;;;;;;;10.70;5.75;;;;;;;;;;5075691;28;20416;-79
2024/01/17 12:26:18;;;;;;;9.50;5.68;;;;;;;;;;5071465;28;20094;-79
2024/01/17 12:28:44;;;;;;;9.57;5.97;;;;;;;;;;5070845;28;20086;-79
2024/01/17 12:31:09;;;;;;;9.90;5.85;;;;;;;;;;5074786;28;20029;-79
2024/01/17 12:33:37;;;;;;;12.95;6.35;;;;;;;;;;5078145;28;20055;-79
2024/01/17 12:36:04;;;;;;;10.10;4.93;;;;;;;;;;5074949;28;20036;-79
2024/01/17 12:38:30;;;;;;;9.98;5.40;;;;;;;;;;5074949;28;20427;-79
2024/01/17 12:40:56;;;;;;;10.90;5.38;;;;;;;;;;5074463;28;20037;-79
2024/01/17 12:43:22;;;;;;;12.57;6.45;;;;;;;;;;5076932;28;20098;-79
2024/01/17 12:45:47;;;;;;;10.43;5.78;;;;;;;;;;5075915;28;20025;-79
2024/01/17 12:48:14;;;;;;;10.13;5.63;;;;;;;;;;5073661;28;20032;-79
2024/01/17 12:50:47;;;;;;;9.70;5.28;;;;;;;;;;5073274;28;20031;-79
2024/01/17 12:53:13;;;;;;;12.10;5.43;;;;;;;;;;5082108;28;20032;-79
2024/01/17 12:55:39;;;;;;;13.52;7.45;;;;;;;;;;5085608;28;20104;-79
2024/01/17 12:58:04;;;;;;;10.90;4.93;;;;;;;;;;5081418;28;20447;-79
2024/01/17 13:00:30;;;;;;;11.25;5.95;;;;;;;;;;5078876;28;20036;-79
2024/01/17 13:02:55;;;;;;;10.82;5.93;;;;;;;;;;5081026;28;20041;-79
2024/01/17 13:05:23;;;;;;;11.02;5.30;;;;;;;;;;5074753;28;20052;-79
2024/01/17 13:07:48;;;;;;;10.43;5.45;;;;;;;;;;5073119;28;20033;-79
2024/01/17 13:10:14;;;;;;;9.57;5.43;;;;;;;;;;5076099;28;20126;-79
2024/01/17 13:12:39;;;;;;;9.07;5.43;;;;;;;;;;5080643;28;20041;-79
2024/01/17 13:15:08;;;;;;;10.68;4.95;;;;;;;;;;5078052;28;20054;-79
2024/01/17 13:17:34;;;;;;;9.77;5.28;;;;;;;;;;5074260;28;20442;-79
2024/01/17 13:19:59;;;;;;;9.05;4.97;;;;;;;;;;5077504;28;20090;-79
2024/01/17 13:22:24;;;;;;;8.77;4.57;;;;;;;;;;5076167;28;20471;-79
2024/01/17 13:24:49;;;;;;;8.82;4.65;;;;;;;;;;5078547;28;20659;-79
2024/01/17 13:27:15;;;;;;;13.73;5.63;;;;;;;;;;5080432;28;20032;-79
2024/01/17 13:29:40;;;;;;;12.02;7.35;;;;;;;;;;5074937;28;20032;-79
2024/01/17 13:32:05;;;;;;;11.85;6.10;;;;;;;;;;5076636;28;20024;-79
2024/01/17 13:34:30;;;;;;;12.65;5.18;;;;;;;;;;5074438;28;20081;-79
2024/01/17 13:36:56;;;;;;;10.48;5.70;;;;;;;;;;5072813;28;20036;-79
2024/01/17 13:39:26;;;;;;;16.70;6.55;;;;;;;;;;5073802;28;20038;-79
2024/01/17 13:41:51;;;;;;;10.23;5.32;;;;;;;;;;5076927;28;20036;-79
2024/01/17 13:44:20;;;;;;;10.90;5.22;;;;;;;;;;5074021;28;20039;-79
2024/01/17 13:46:45;;;;;;;10.05;4.72;;;;;;;;;;5072653;28;20032;-79
2024/01/17 13:49:11;;;;;;;10.98;5.82;;;;;;;;;;5073839;28;20036;-79
2024/01/17 13:51:43;;;;;;;11.23;6.40;;;;;;;;;;5075157;28;20035;-79
2024/01/17 13:54:14;;;;;;;11.48;5.25;;;;;;;;;;5073788;28;20085;-79
2024/01/17 13:56:40;;;;;;;8.00;5.10;;;;;;;;;;5074815;28;20032;-79
2024/01/17 13:59:05;;;;;;;12.30;5.88;;;;;;;;;;5073530;28;20036;-79
2024/01/17 14:01:31;;;;;;;11.68;6.85;;;;;;;;;;5075321;28;20016;-79
2024/01/17 14:03:56;;;;;;;11.80;5.88;;;;;;;;;;5079569;28;20404;-79
2024/01/17 14:06:21;;;;;;;10.18;5.20;;;;;;;;;;5080492;28;20020;-79
2024/01/17 14:08:47;;;;;;;9.20;5.32;;;;;;;;;;5081792;28;20064;-79
2024/01/17 14:11:13;;;;;;;9.65;4.78;;;;;;;;;;5075791;28;20056;-79
2024/01/17 14:13:38;;;;;;;11.80;4.70;;;;;;;;;;5076567;28;20040;-79
2024/01/17 14:16:04;;;;;;;11.55;5.32;;;;;;;;;;5073932;28;20107;-80
2024/01/17 14:18:29;;;;;;;19.83;5.70;;;;;;;;;;5081339;28;20023;-79
2024/01/17 14:20:55;;;;;;;10.75;5.05;;;;;;;;;;5073335;28;20043;-80
2024/01/17 14:23:20;;;;;;;10.48;4.38;;;;;;;;;;5078564;28;20024;-80
2024/01/17 14:25:45;;;;;;;9.02;4.63;;;;;;;;;;5076457;28;21766;-79
2024/01/17 14:28:10;;;;;;;9.48;4.85;;;;;;;;;;5072462;28;20416;-79